SWA671 KBNA-KLGA
Flight info
| Callsign | SWA671 |
|---|---|
| Flight time | N/A |
| Altitude | 37000 |
| Route | KRSTA4 OLSIE IIU Q139 CREEP Q29 WWSHR TEESY Q186 WEVEL ETG MIP4 |
| Aircraft | B738/M-SDE2E3FGHIRWXY/LB1 |
Departure
| Time | 2026-05-06 00:52 |
|---|---|
| Airport | Nashville International Airport (KBNA) |
Arrival
| Time | N/A |
|---|---|
| Airport | LaGuardia Airport (KLGA) |
| Time | Latitude | Longitude | Altitude | Speed | Heading |
|---|---|---|---|---|---|
| 2026-05-06 00:21 | 36.13380 | -86.67001 | 566 ft | 0 kts | 97° |
| 2026-05-06 00:42 | 36.13380 | -86.67005 | 567 ft | 2 kts | 102° |
| 2026-05-06 00:42 | 36.13383 | -86.67025 | 574 ft | 2 kts | 89° |
| 2026-05-06 00:42 | 36.13385 | -86.67045 | 571 ft | 2 kts | 105° |
| 2026-05-06 00:43 | 36.13390 | -86.67064 | 573 ft | 2 kts | 118° |
| 2026-05-06 00:43 | 36.13400 | -86.67080 | 570 ft | 2 kts | 148° |
| 2026-05-06 00:43 | 36.13408 | -86.67085 | 574 ft | 1 kts | 186° |
| 2026-05-06 00:43 | 36.13409 | -86.67085 | 574 ft | 0 kts | 187° |
| 2026-05-06 00:48 | 36.13408 | -86.67085 | 574 ft | 1 kts | 192° |
| 2026-05-06 00:48 | 36.13401 | -86.67099 | 570 ft | 5 kts | 237° |
| 2026-05-06 00:48 | 36.13382 | -86.67171 | 571 ft | 12 kts | 266° |
| 2026-05-06 00:48 | 36.13399 | -86.67307 | 571 ft | 20 kts | 304° |
| 2026-05-06 00:49 | 36.13474 | -86.67515 | 558 ft | 33 kts | 288° |
| 2026-05-06 00:49 | 36.13544 | -86.67737 | 570 ft | 19 kts | 324° |
| 2026-05-06 00:49 | 36.13674 | -86.67717 | 569 ft | 22 kts | 12° |
| 2026-05-06 00:49 | 36.13735 | -86.67734 | 572 ft | 2 kts | 313° |
| 2026-05-06 00:50 | 36.13736 | -86.67736 | 572 ft | 0 kts | 310° |
| 2026-05-06 00:50 | 36.13739 | -86.67740 | 571 ft | 2 kts | 310° |
| 2026-05-06 00:51 | 36.13747 | -86.67770 | 570 ft | 6 kts | 284° |
| 2026-05-06 00:51 | 36.13759 | -86.67836 | 569 ft | 0 kts | 277° |
| 2026-05-06 00:51 | 36.13750 | -86.67866 | 568 ft | 6 kts | 233° |
| 2026-05-06 00:51 | 36.13692 | -86.67899 | 568 ft | 26 kts | 198° |
| 2026-05-06 00:52 | 36.13233 | -86.68076 | 580 ft | 109 kts | 197° |
| 2026-05-06 00:52 | 36.12302 | -86.68437 | 780 ft | 159 kts | 197° |
| 2026-05-06 00:52 | 36.11292 | -86.68870 | 1927 ft | 142 kts | 197° |
| 2026-05-06 00:52 | 36.10439 | -86.69368 | 3078 ft | 144 kts | 219° |
| 2026-05-06 00:53 | 36.09736 | -86.70422 | 3469 ft | 176 kts | 234° |
| 2026-05-06 00:53 | 36.09045 | -86.71826 | 3704 ft | 206 kts | 235° |
| 2026-05-06 00:53 | 36.08249 | -86.73448 | 4142 ft | 228 kts | 236° |
| 2026-05-06 00:53 | 36.07428 | -86.75138 | 5075 ft | 230 kts | 239° |
| 2026-05-06 00:54 | 36.06916 | -86.77031 | 5906 ft | 238 kts | 260° |
| 2026-05-06 00:54 | 36.06931 | -86.79121 | 6631 ft | 250 kts | 276° |
| 2026-05-06 00:54 | 36.07318 | -86.81204 | 7631 ft | 249 kts | 279° |
| 2026-05-06 00:54 | 36.07775 | -86.83283 | 8525 ft | 252 kts | 285° |
| 2026-05-06 00:55 | 36.08708 | -86.85176 | 9384 ft | 267 kts | 307° |
| 2026-05-06 00:55 | 36.10247 | -86.86547 | 10190 ft | 284 kts | 328° |
| 2026-05-06 00:55 | 36.12288 | -86.87112 | 10465 ft | 326 kts | 355° |
| 2026-05-06 00:55 | 36.14651 | -86.86665 | 10666 ft | 358 kts | 6° |
| 2026-05-06 00:56 | 36.17123 | -86.85925 | 10849 ft | 381 kts | 8° |
| 2026-05-06 00:56 | 36.19747 | -86.85084 | 11235 ft | 395 kts | 9° |
| 2026-05-06 00:56 | 36.22415 | -86.84238 | 11919 ft | 397 kts | 8° |
| 2026-05-06 00:56 | 36.25114 | -86.83414 | 12621 ft | 400 kts | 8° |
| 2026-05-06 00:57 | 36.27837 | -86.82611 | 13272 ft | 404 kts | 7° |
| 2026-05-06 00:57 | 36.30582 | -86.81812 | 13882 ft | 408 kts | 7° |
| 2026-05-06 00:57 | 36.33317 | -86.80750 | 14448 ft | 420 kts | 21° |
| 2026-05-06 00:57 | 36.35731 | -86.78630 | 15039 ft | 434 kts | 42° |
| 2026-05-06 00:58 | 36.37776 | -86.75847 | 15671 ft | 437 kts | 45° |
| 2026-05-06 00:58 | 36.39790 | -86.72983 | 16208 ft | 442 kts | 46° |
| 2026-05-06 00:58 | 36.41820 | -86.70085 | 16734 ft | 447 kts | 46° |
| 2026-05-06 00:58 | 36.43873 | -86.67175 | 17291 ft | 450 kts | 45° |
| 2026-05-06 00:59 | 36.45955 | -86.64251 | 17821 ft | 453 kts | 45° |
| 2026-05-06 00:59 | 36.48035 | -86.61351 | 18294 ft | 457 kts | 45° |
| 2026-05-06 00:59 | 36.50161 | -86.58393 | 18737 ft | 461 kts | 45° |
| 2026-05-06 00:59 | 36.52302 | -86.55414 | 19201 ft | 463 kts | 45° |
| 2026-05-06 01:00 | 36.54445 | -86.52428 | 19663 ft | 465 kts | 45° |
| 2026-05-06 01:00 | 36.56615 | -86.49413 | 20107 ft | 467 kts | 43° |
| 2026-05-06 01:00 | 36.59082 | -86.46840 | 20498 ft | 461 kts | 25° |
| 2026-05-06 01:00 | 36.61960 | -86.45183 | 20975 ft | 454 kts | 15° |
| 2026-05-06 01:01 | 36.64918 | -86.43767 | 21422 ft | 456 kts | 15° |
| 2026-05-06 01:01 | 36.67889 | -86.42332 | 21807 ft | 459 kts | 16° |
| 2026-05-06 01:01 | 36.70869 | -86.40835 | 22207 ft | 463 kts | 17° |
| 2026-05-06 01:01 | 36.73844 | -86.39272 | 22603 ft | 467 kts | 19° |
| 2026-05-06 01:02 | 36.76782 | -86.37490 | 23008 ft | 471 kts | 21° |
| 2026-05-06 01:02 | 36.79700 | -86.35573 | 23421 ft | 474 kts | 22° |
| 2026-05-06 01:02 | 36.82608 | -86.33616 | 23743 ft | 476 kts | 23° |
| 2026-05-06 01:02 | 36.85495 | -86.31679 | 24047 ft | 478 kts | 22° |
| 2026-05-06 01:03 | 36.88432 | -86.29729 | 24358 ft | 480 kts | 22° |
| 2026-05-06 01:03 | 36.91428 | -86.27763 | 24681 ft | 481 kts | 21° |
| 2026-05-06 01:03 | 36.94367 | -86.25848 | 24990 ft | 483 kts | 21° |
| 2026-05-06 01:03 | 36.97350 | -86.23912 | 25288 ft | 485 kts | 21° |
| 2026-05-06 01:04 | 37.00352 | -86.21964 | 25591 ft | 487 kts | 21° |
| 2026-05-06 01:04 | 37.03370 | -86.20003 | 25886 ft | 489 kts | 21° |
| 2026-05-06 01:04 | 37.06391 | -86.18037 | 26187 ft | 490 kts | 21° |
| 2026-05-06 01:04 | 37.09427 | -86.16057 | 26473 ft | 492 kts | 20° |
| 2026-05-06 01:05 | 37.12464 | -86.14075 | 26754 ft | 494 kts | 20° |
| 2026-05-06 01:05 | 37.15519 | -86.12079 | 27022 ft | 496 kts | 20° |
| 2026-05-06 01:05 | 37.18582 | -86.10075 | 27290 ft | 498 kts | 20° |
| 2026-05-06 01:05 | 37.21658 | -86.08062 | 27545 ft | 499 kts | 20° |
| 2026-05-06 01:06 | 37.24754 | -86.06079 | 27835 ft | 498 kts | 18° |
| 2026-05-06 01:06 | 37.27887 | -86.04248 | 28224 ft | 494 kts | 16° |
| 2026-05-06 01:06 | 37.31015 | -86.02513 | 28745 ft | 490 kts | 15° |
| 2026-05-06 01:06 | 37.34140 | -86.00812 | 29172 ft | 488 kts | 14° |
| 2026-05-06 01:07 | 37.37251 | -85.99117 | 29541 ft | 488 kts | 14° |
| 2026-05-06 01:07 | 37.40364 | -85.97406 | 29925 ft | 487 kts | 14° |
| 2026-05-06 01:07 | 37.43463 | -85.95684 | 30290 ft | 486 kts | 14° |
| 2026-05-06 01:07 | 37.46556 | -85.93951 | 30627 ft | 486 kts | 14° |
| 2026-05-06 01:08 | 37.49636 | -85.92217 | 30946 ft | 485 kts | 14° |
| 2026-05-06 01:08 | 37.52719 | -85.90477 | 31258 ft | 485 kts | 14° |
| 2026-05-06 01:08 | 37.55794 | -85.88738 | 31614 ft | 484 kts | 14° |
| 2026-05-06 01:08 | 37.58823 | -85.87024 | 31930 ft | 483 kts | 14° |
| 2026-05-06 01:09 | 37.61890 | -85.85289 | 32218 ft | 483 kts | 13° |
| 2026-05-06 01:09 | 37.64960 | -85.83551 | 32528 ft | 483 kts | 13° |
| 2026-05-06 01:09 | 37.68023 | -85.81816 | 32845 ft | 482 kts | 13° |
| 2026-05-06 01:09 | 37.71085 | -85.80080 | 33173 ft | 481 kts | 13° |
| 2026-05-06 01:10 | 37.74137 | -85.78348 | 33452 ft | 481 kts | 13° |
| 2026-05-06 01:10 | 37.77195 | -85.76611 | 33734 ft | 481 kts | 13° |
| 2026-05-06 01:10 | 37.80245 | -85.74876 | 34009 ft | 480 kts | 13° |
| 2026-05-06 01:10 | 37.83292 | -85.73142 | 34278 ft | 479 kts | 12° |
| 2026-05-06 01:11 | 37.86327 | -85.71412 | 34567 ft | 478 kts | 12° |
| 2026-05-06 01:11 | 37.89361 | -85.69681 | 34819 ft | 477 kts | 12° |
| 2026-05-06 01:11 | 37.92385 | -85.67956 | 35076 ft | 477 kts | 12° |
| 2026-05-06 01:11 | 37.95407 | -85.66230 | 35339 ft | 476 kts | 12° |
| 2026-05-06 01:12 | 37.98420 | -85.64508 | 35597 ft | 475 kts | 12° |
| 2026-05-06 01:12 | 38.01395 | -85.62805 | 35828 ft | 474 kts | 12° |
| 2026-05-06 01:12 | 38.04396 | -85.61087 | 36063 ft | 474 kts | 11° |
| 2026-05-06 01:12 | 38.07395 | -85.59368 | 36320 ft | 473 kts | 11° |
| 2026-05-06 01:13 | 38.10393 | -85.57640 | 36552 ft | 473 kts | 12° |
| 2026-05-06 01:13 | 38.13354 | -85.55782 | 36782 ft | 477 kts | 14° |
| 2026-05-06 01:13 | 38.16310 | -85.53799 | 36815 ft | 482 kts | 15° |
| 2026-05-06 01:14 | 38.25156 | -85.47662 | 36804 ft | 480 kts | 15° |
| 2026-05-06 01:14 | 38.30988 | -85.43651 | 36834 ft | 475 kts | 15° |
| 2026-05-06 01:15 | 38.36824 | -85.39675 | 36825 ft | 474 kts | 15° |
| 2026-05-06 01:15 | 38.42634 | -85.35716 | 36829 ft | 473 kts | 15° |
| 2026-05-06 01:16 | 38.48436 | -85.31751 | 36840 ft | 474 kts | 15° |
| 2026-05-06 01:16 | 38.54262 | -85.27761 | 36845 ft | 476 kts | 15° |
| 2026-05-06 01:17 | 38.60083 | -85.23764 | 36853 ft | 479 kts | 15° |
| 2026-05-06 01:17 | 38.65968 | -85.19714 | 36849 ft | 481 kts | 15° |
| 2026-05-06 01:18 | 38.71878 | -85.15640 | 36848 ft | 483 kts | 15° |
| 2026-05-06 01:18 | 38.76809 | -85.12234 | 36847 ft | 485 kts | 15° |
| 2026-05-06 01:19 | 38.82753 | -85.08118 | 36843 ft | 486 kts | 15° |
| 2026-05-06 01:19 | 38.88695 | -85.03994 | 36834 ft | 486 kts | 15° |
| 2026-05-06 01:20 | 38.94650 | -84.99852 | 36842 ft | 486 kts | 15° |
| 2026-05-06 01:20 | 39.00606 | -84.95705 | 36835 ft | 486 kts | 15° |
| 2026-05-06 01:21 | 39.06550 | -84.91556 | 36846 ft | 485 kts | 15° |
| 2026-05-06 01:21 | 39.12475 | -84.87410 | 36847 ft | 485 kts | 16° |
| 2026-05-06 01:22 | 39.18399 | -84.83258 | 36850 ft | 485 kts | 16° |
| 2026-05-06 01:22 | 39.24317 | -84.79102 | 36841 ft | 484 kts | 15° |
| 2026-05-06 01:23 | 39.30229 | -84.74940 | 36863 ft | 484 kts | 15° |
| 2026-05-06 01:23 | 39.36144 | -84.70770 | 36858 ft | 484 kts | 15° |
| 2026-05-06 01:24 | 39.42025 | -84.66616 | 36856 ft | 485 kts | 16° |
| 2026-05-06 01:24 | 39.47939 | -84.62429 | 36859 ft | 485 kts | 16° |
| 2026-05-06 01:25 | 39.53872 | -84.58221 | 36865 ft | 485 kts | 16° |
| 2026-05-06 01:25 | 39.59799 | -84.54008 | 36859 ft | 486 kts | 16° |
| 2026-05-06 01:26 | 39.65727 | -84.49786 | 36866 ft | 486 kts | 16° |
| 2026-05-06 01:26 | 39.71663 | -84.45551 | 36863 ft | 486 kts | 16° |
| 2026-05-06 01:27 | 39.77595 | -84.41309 | 36878 ft | 486 kts | 16° |
| 2026-05-06 01:27 | 39.83524 | -84.37061 | 36885 ft | 486 kts | 16° |
| 2026-05-06 01:28 | 39.89443 | -84.32812 | 36894 ft | 486 kts | 16° |
| 2026-05-06 01:28 | 39.92306 | -84.30507 | 36885 ft | 498 kts | 24° |
| 2026-05-06 01:28 | 39.95011 | -84.27560 | 36890 ft | 511 kts | 32° |
| 2026-05-06 01:29 | 40.00106 | -84.21044 | 36891 ft | 514 kts | 34° |
| 2026-05-06 01:29 | 40.05154 | -84.14445 | 36885 ft | 512 kts | 33° |
| 2026-05-06 01:30 | 40.10224 | -84.07933 | 36887 ft | 511 kts | 33° |
| 2026-05-06 01:30 | 40.15313 | -84.01460 | 36876 ft | 509 kts | 33° |
| 2026-05-06 01:31 | 40.20385 | -83.95004 | 36879 ft | 508 kts | 33° |
| 2026-05-06 01:31 | 40.25442 | -83.88544 | 36870 ft | 507 kts | 33° |
| 2026-05-06 01:32 | 40.30485 | -83.82083 | 36880 ft | 506 kts | 33° |
| 2026-05-06 01:32 | 40.35511 | -83.75630 | 36885 ft | 506 kts | 33° |
| 2026-05-06 01:33 | 40.40533 | -83.69167 | 36886 ft | 505 kts | 33° |
| 2026-05-06 01:33 | 40.45512 | -83.62747 | 36886 ft | 505 kts | 33° |
| 2026-05-06 01:34 | 40.50514 | -83.56281 | 36890 ft | 504 kts | 33° |
| 2026-05-06 01:34 | 40.55510 | -83.49806 | 36889 ft | 504 kts | 33° |
| 2026-05-06 01:35 | 40.60491 | -83.43335 | 36890 ft | 503 kts | 33° |
| 2026-05-06 01:35 | 40.65468 | -83.36855 | 36889 ft | 503 kts | 33° |
| 2026-05-06 01:36 | 40.70408 | -83.30293 | 36883 ft | 510 kts | 39° |
| 2026-05-06 01:36 | 40.74860 | -83.22907 | 36889 ft | 516 kts | 42° |
| 2026-05-06 01:37 | 40.79185 | -83.15392 | 36892 ft | 516 kts | 42° |
| 2026-05-06 01:37 | 40.83558 | -83.07858 | 36890 ft | 516 kts | 42° |
| 2026-05-06 01:38 | 40.87946 | -83.00367 | 36890 ft | 515 kts | 42° |
| 2026-05-06 01:38 | 40.92336 | -82.92874 | 36901 ft | 515 kts | 42° |
| 2026-05-06 01:39 | 40.96720 | -82.85367 | 36895 ft | 515 kts | 42° |
| 2026-05-06 01:39 | 41.01093 | -82.77857 | 36889 ft | 515 kts | 42° |
| 2026-05-06 01:40 | 41.05458 | -82.70340 | 36890 ft | 514 kts | 42° |
| 2026-05-06 01:40 | 41.09811 | -82.62825 | 36893 ft | 514 kts | 42° |
| 2026-05-06 01:41 | 41.14137 | -82.55252 | 36894 ft | 518 kts | 46° |
| 2026-05-06 01:41 | 41.17720 | -82.46860 | 36874 ft | 516 kts | 53° |
| 2026-05-06 01:42 | 41.20946 | -82.38549 | 36869 ft | 496 kts | 53° |
| 2026-05-06 01:42 | 41.24081 | -82.30643 | 36873 ft | 478 kts | 52° |
| 2026-05-06 01:43 | 41.27168 | -82.22980 | 36870 ft | 463 kts | 51° |
| 2026-05-06 01:43 | 41.30163 | -82.15539 | 36872 ft | 450 kts | 51° |
| 2026-05-06 01:44 | 41.33034 | -82.08252 | 36868 ft | 443 kts | 57° |
| 2026-05-06 01:44 | 41.34083 | -82.04361 | 36802 ft | 450 kts | 68° |
| 2026-05-06 01:44 | 41.34670 | -82.00236 | 36667 ft | 458 kts | 79° |
| 2026-05-06 01:45 | 41.34910 | -81.96000 | 36480 ft | 459 kts | 82° |
| 2026-05-06 01:45 | 41.35081 | -81.91745 | 36329 ft | 459 kts | 82° |
| 2026-05-06 01:45 | 41.35231 | -81.87570 | 36226 ft | 457 kts | 83° |
| 2026-05-06 01:45 | 41.35295 | -81.83342 | 36145 ft | 456 kts | 86° |
| 2026-05-06 01:46 | 41.35233 | -81.79123 | 35997 ft | 458 kts | 88° |
| 2026-05-06 01:46 | 41.35115 | -81.74855 | 35711 ft | 464 kts | 89° |
| 2026-05-06 01:46 | 41.34979 | -81.70541 | 35451 ft | 469 kts | 89° |
| 2026-05-06 01:46 | 41.34844 | -81.66194 | 35179 ft | 473 kts | 89° |
| 2026-05-06 01:47 | 41.34717 | -81.61802 | 34996 ft | 474 kts | 89° |
| 2026-05-06 01:47 | 41.34599 | -81.57431 | 35027 ft | 472 kts | 89° |
| 2026-05-06 01:47 | 41.34382 | -81.48593 | 35084 ft | 485 kts | 89° |
| 2026-05-06 01:48 | 41.34274 | -81.44093 | 35242 ft | 486 kts | 89° |
| 2026-05-06 01:48 | 41.34164 | -81.39573 | 35290 ft | 492 kts | 89° |
| 2026-05-06 01:48 | 41.33936 | -81.30344 | 35260 ft | 506 kts | 89° |
| 2026-05-06 01:49 | 41.33691 | -81.20847 | 35267 ft | 519 kts | 89° |
| 2026-05-06 01:49 | 41.33432 | -81.11239 | 35404 ft | 528 kts | 89° |
| 2026-05-06 01:50 | 41.33159 | -81.01381 | 35506 ft | 539 kts | 89° |
| 2026-05-06 01:50 | 41.32872 | -80.91346 | 35684 ft | 546 kts | 89° |
| 2026-05-06 01:51 | 41.32751 | -80.87251 | 35828 ft | 547 kts | 89° |
| 2026-05-06 01:51 | 41.32600 | -80.82179 | 36052 ft | 547 kts | 89° |
| 2026-05-06 01:51 | 41.32447 | -80.77119 | 36363 ft | 545 kts | 89° |
| 2026-05-06 01:51 | 41.32293 | -80.72100 | 36690 ft | 543 kts | 89° |
| 2026-05-06 01:52 | 41.32137 | -80.67085 | 36887 ft | 543 kts | 89° |
| 2026-05-06 01:52 | 41.31980 | -80.62060 | 36856 ft | 544 kts | 89° |
| 2026-05-06 01:52 | 41.31660 | -80.52032 | 36852 ft | 540 kts | 89° |
| 2026-05-06 01:53 | 41.31333 | -80.42084 | 36861 ft | 537 kts | 89° |
| 2026-05-06 01:53 | 41.30999 | -80.32191 | 36871 ft | 534 kts | 89° |
| 2026-05-06 01:54 | 41.30658 | -80.22316 | 36878 ft | 533 kts | 89° |
| 2026-05-06 01:54 | 41.30313 | -80.12532 | 36881 ft | 533 kts | 89° |
| 2026-05-06 01:55 | 41.29955 | -80.02670 | 36886 ft | 534 kts | 89° |
| 2026-05-06 01:55 | 41.29589 | -79.92733 | 36902 ft | 542 kts | 89° |
| 2026-05-06 01:56 | 41.29207 | -79.82673 | 36885 ft | 545 kts | 90° |
| 2026-05-06 01:56 | 41.28814 | -79.72597 | 36880 ft | 546 kts | 90° |
| 2026-05-06 01:57 | 41.28412 | -79.62513 | 36868 ft | 545 kts | 90° |
| 2026-05-06 01:57 | 41.28005 | -79.52518 | 36860 ft | 544 kts | 90° |
| 2026-05-06 01:58 | 41.27589 | -79.42492 | 36843 ft | 542 kts | 90° |
| 2026-05-06 01:58 | 41.27166 | -79.32504 | 36843 ft | 540 kts | 90° |
| 2026-05-06 01:59 | 41.26736 | -79.22553 | 36839 ft | 538 kts | 90° |
| 2026-05-06 01:59 | 41.26299 | -79.12643 | 36839 ft | 535 kts | 90° |
| 2026-05-06 02:00 | 41.25855 | -79.02778 | 36848 ft | 533 kts | 90° |
| 2026-05-06 02:00 | 41.25406 | -78.92956 | 36857 ft | 532 kts | 90° |
| 2026-05-06 02:01 | 41.24947 | -78.83103 | 36560 ft | 538 kts | 90° |
| 2026-05-06 02:01 | 41.24713 | -78.78141 | 36307 ft | 536 kts | 91° |
| 2026-05-06 02:01 | 41.24477 | -78.73221 | 36049 ft | 532 kts | 91° |
| 2026-05-06 02:02 | 41.24240 | -78.68330 | 35804 ft | 529 kts | 91° |
| 2026-05-06 02:02 | 41.24003 | -78.63464 | 35553 ft | 527 kts | 91° |
| 2026-05-06 02:02 | 41.23766 | -78.58621 | 35306 ft | 524 kts | 92° |
| 2026-05-06 02:02 | 41.23527 | -78.53788 | 35068 ft | 522 kts | 92° |
| 2026-05-06 02:03 | 41.23290 | -78.49041 | 34830 ft | 521 kts | 93° |
| 2026-05-06 02:03 | 41.23049 | -78.44238 | 34597 ft | 521 kts | 92° |
| 2026-05-06 02:03 | 41.22806 | -78.39424 | 34360 ft | 523 kts | 92° |
| 2026-05-06 02:03 | 41.22560 | -78.34605 | 34127 ft | 522 kts | 93° |
| 2026-05-06 02:04 | 41.22313 | -78.29816 | 33888 ft | 520 kts | 93° |
| 2026-05-06 02:04 | 41.22064 | -78.25020 | 33628 ft | 518 kts | 93° |
| 2026-05-06 02:04 | 41.21815 | -78.20262 | 33356 ft | 516 kts | 94° |
| 2026-05-06 02:04 | 41.21565 | -78.15516 | 33085 ft | 514 kts | 94° |
| 2026-05-06 02:05 | 41.21222 | -78.10783 | 32883 ft | 516 kts | 97° |
| 2026-05-06 02:05 | 41.20693 | -78.06069 | 32848 ft | 517 kts | 100° |
| 2026-05-06 02:05 | 41.19426 | -77.96678 | 32823 ft | 515 kts | 101° |
| 2026-05-06 02:06 | 41.18164 | -77.87348 | 32835 ft | 513 kts | 100° |
| 2026-05-06 02:06 | 41.16964 | -77.78008 | 32829 ft | 512 kts | 100° |
| 2026-05-06 02:07 | 41.15789 | -77.68692 | 32831 ft | 511 kts | 100° |
| 2026-05-06 02:07 | 41.14613 | -77.59421 | 32802 ft | 510 kts | 100° |
| 2026-05-06 02:08 | 41.14017 | -77.54757 | 32515 ft | 513 kts | 100° |
| 2026-05-06 02:08 | 41.13420 | -77.50109 | 32254 ft | 509 kts | 100° |
| 2026-05-06 02:08 | 41.12825 | -77.45491 | 31999 ft | 508 kts | 100° |
| 2026-05-06 02:08 | 41.12226 | -77.40864 | 31749 ft | 508 kts | 101° |
| 2026-05-06 02:09 | 41.11636 | -77.36322 | 31495 ft | 507 kts | 101° |
| 2026-05-06 02:09 | 41.11027 | -77.31645 | 31244 ft | 507 kts | 101° |
| 2026-05-06 02:09 | 41.10432 | -77.27101 | 31002 ft | 506 kts | 101° |
| 2026-05-06 02:09 | 41.09831 | -77.22516 | 30750 ft | 506 kts | 101° |
| 2026-05-06 02:10 | 41.09226 | -77.17921 | 30508 ft | 505 kts | 101° |
| 2026-05-06 02:10 | 41.08623 | -77.13343 | 30268 ft | 505 kts | 102° |
| 2026-05-06 02:10 | 41.08016 | -77.08760 | 30028 ft | 505 kts | 102° |
| 2026-05-06 02:10 | 41.07408 | -77.04178 | 29770 ft | 505 kts | 102° |
| 2026-05-06 02:11 | 41.06796 | -76.99584 | 29480 ft | 505 kts | 102° |
| 2026-05-06 02:11 | 41.06184 | -76.94997 | 29201 ft | 506 kts | 102° |
| 2026-05-06 02:11 | 41.05569 | -76.90413 | 28929 ft | 506 kts | 102° |
| 2026-05-06 02:11 | 41.04950 | -76.85808 | 28655 ft | 507 kts | 102° |
| 2026-05-06 02:12 | 41.04326 | -76.81180 | 28118 ft | 513 kts | 102° |
| 2026-05-06 02:12 | 41.03694 | -76.76510 | 27605 ft | 517 kts | 102° |
| 2026-05-06 02:12 | 41.03058 | -76.71810 | 27089 ft | 518 kts | 103° |
| 2026-05-06 02:12 | 41.02427 | -76.67184 | 26591 ft | 518 kts | 103° |
| 2026-05-06 02:13 | 41.01608 | -76.62497 | 26071 ft | 513 kts | 109° |
| 2026-05-06 02:13 | 41.00553 | -76.57991 | 25600 ft | 510 kts | 112° |
| 2026-05-06 02:13 | 40.99420 | -76.53620 | 25105 ft | 507 kts | 113° |
| 2026-05-06 02:13 | 40.98269 | -76.49229 | 24649 ft | 504 kts | 112° |
| 2026-05-06 02:14 | 40.97152 | -76.44850 | 24177 ft | 498 kts | 112° |
| 2026-05-06 02:14 | 40.96080 | -76.40512 | 23725 ft | 491 kts | 112° |
| 2026-05-06 02:14 | 40.95044 | -76.36229 | 23237 ft | 487 kts | 112° |
| 2026-05-06 02:14 | 40.94020 | -76.31975 | 22698 ft | 483 kts | 112° |
| 2026-05-06 02:15 | 40.93003 | -76.27757 | 22192 ft | 480 kts | 112° |
| 2026-05-06 02:15 | 40.91986 | -76.23567 | 21677 ft | 477 kts | 112° |
| 2026-05-06 02:15 | 40.90972 | -76.19405 | 21171 ft | 473 kts | 112° |
| 2026-05-06 02:15 | 40.89966 | -76.15288 | 20686 ft | 470 kts | 112° |
| 2026-05-06 02:16 | 40.88962 | -76.11181 | 20199 ft | 467 kts | 112° |
| 2026-05-06 02:16 | 40.87966 | -76.07112 | 19705 ft | 463 kts | 112° |
| 2026-05-06 02:16 | 40.86989 | -76.03127 | 19175 ft | 460 kts | 112° |
| 2026-05-06 02:16 | 40.86005 | -75.99123 | 18580 ft | 456 kts | 112° |
| 2026-05-06 02:17 | 40.85034 | -75.95171 | 17962 ft | 449 kts | 112° |
| 2026-05-06 02:17 | 40.84072 | -75.91266 | 17295 ft | 443 kts | 112° |
| 2026-05-06 02:17 | 40.83123 | -75.87419 | 16642 ft | 438 kts | 112° |
| 2026-05-06 02:17 | 40.82182 | -75.83616 | 15999 ft | 434 kts | 112° |
| 2026-05-06 02:18 | 40.81249 | -75.79847 | 15374 ft | 430 kts | 111° |
| 2026-05-06 02:18 | 40.80324 | -75.76117 | 14762 ft | 427 kts | 111° |
| 2026-05-06 02:18 | 40.79410 | -75.72442 | 14164 ft | 425 kts | 111° |
| 2026-05-06 02:18 | 40.78489 | -75.68741 | 13563 ft | 423 kts | 111° |
| 2026-05-06 02:19 | 40.77572 | -75.65059 | 13066 ft | 422 kts | 111° |
| 2026-05-06 02:19 | 40.76651 | -75.61374 | 12787 ft | 424 kts | 111° |
| 2026-05-06 02:19 | 40.75723 | -75.57662 | 12528 ft | 425 kts | 111° |
| 2026-05-06 02:19 | 40.74801 | -75.53979 | 12272 ft | 422 kts | 111° |
| 2026-05-06 02:20 | 40.72968 | -75.46667 | 11780 ft | 418 kts | 111° |
| 2026-05-06 02:20 | 40.72071 | -75.43025 | 11517 ft | 416 kts | 113° |
| 2026-05-06 02:20 | 40.70944 | -75.39542 | 11268 ft | 411 kts | 118° |
| 2026-05-06 02:21 | 40.69697 | -75.36165 | 11018 ft | 409 kts | 120° |
| 2026-05-06 02:21 | 40.68435 | -75.32821 | 10775 ft | 407 kts | 120° |
| 2026-05-06 02:21 | 40.67201 | -75.29519 | 10517 ft | 395 kts | 119° |
| 2026-05-06 02:21 | 40.66021 | -75.26311 | 10264 ft | 382 kts | 119° |
| 2026-05-06 02:22 | 40.64905 | -75.23241 | 10023 ft | 371 kts | 118° |
| 2026-05-06 02:22 | 40.63817 | -75.20228 | 9910 ft | 356 kts | 119° |
| 2026-05-06 02:22 | 40.62776 | -75.17341 | 9868 ft | 341 kts | 118° |
| 2026-05-06 02:22 | 40.61785 | -75.14590 | 9862 ft | 325 kts | 118° |
| 2026-05-06 02:23 | 40.60832 | -75.11948 | 9851 ft | 311 kts | 119° |
| 2026-05-06 02:23 | 40.59930 | -75.09450 | 9889 ft | 293 kts | 119° |
| 2026-05-06 02:23 | 40.59083 | -75.07106 | 9882 ft | 273 kts | 119° |
| 2026-05-06 02:23 | 40.58297 | -75.04931 | 9861 ft | 254 kts | 120° |
| 2026-05-06 02:24 | 40.57566 | -75.02910 | 9854 ft | 235 kts | 120° |
| 2026-05-06 02:24 | 40.56874 | -75.00999 | 9875 ft | 231 kts | 119° |
| 2026-05-06 02:24 | 40.56252 | -74.99040 | 9869 ft | 231 kts | 115° |
| 2026-05-06 02:24 | 40.55679 | -74.97098 | 9865 ft | 230 kts | 115° |
| 2026-05-06 02:25 | 40.55107 | -74.95146 | 9867 ft | 229 kts | 115° |
| 2026-05-06 02:25 | 40.54533 | -74.93195 | 9872 ft | 228 kts | 115° |
| 2026-05-06 02:25 | 40.53960 | -74.91258 | 9877 ft | 227 kts | 115° |
| 2026-05-06 02:25 | 40.53384 | -74.89320 | 9884 ft | 227 kts | 115° |
| 2026-05-06 02:26 | 40.52806 | -74.87377 | 9886 ft | 228 kts | 115° |
| 2026-05-06 02:26 | 40.52227 | -74.85436 | 9887 ft | 228 kts | 115° |
| 2026-05-06 02:26 | 40.51646 | -74.83492 | 9893 ft | 231 kts | 115° |
| 2026-05-06 02:26 | 40.51048 | -74.81497 | 9882 ft | 242 kts | 115° |
| 2026-05-06 02:27 | 40.50375 | -74.79270 | 9865 ft | 282 kts | 115° |
| 2026-05-06 02:27 | 40.49873 | -74.77610 | 9707 ft | 304 kts | 114° |
| 2026-05-06 02:27 | 40.48839 | -74.74158 | 9366 ft | 308 kts | 114° |
| 2026-05-06 02:27 | 40.48053 | -74.71530 | 9108 ft | 310 kts | 115° |
| 2026-05-06 02:28 | 40.47266 | -74.68909 | 8845 ft | 307 kts | 115° |
| 2026-05-06 02:28 | 40.46487 | -74.66322 | 8587 ft | 303 kts | 115° |
| 2026-05-06 02:28 | 40.45716 | -74.63760 | 8322 ft | 300 kts | 115° |
| 2026-05-06 02:28 | 40.44949 | -74.61220 | 8078 ft | 299 kts | 116° |
| 2026-05-06 02:29 | 40.44430 | -74.59501 | 7899 ft | 299 kts | 116° |
| 2026-05-06 02:29 | 40.43665 | -74.56974 | 7660 ft | 298 kts | 116° |
| 2026-05-06 02:29 | 40.43109 | -74.54347 | 7374 ft | 304 kts | 96° |
| 2026-05-06 02:29 | 40.43378 | -74.51590 | 7164 ft | 308 kts | 75° |
| 2026-05-06 02:30 | 40.44062 | -74.48929 | 6934 ft | 308 kts | 71° |
| 2026-05-06 02:30 | 40.44801 | -74.46286 | 6693 ft | 309 kts | 71° |
| 2026-05-06 02:30 | 40.45539 | -74.43664 | 6467 ft | 310 kts | 71° |
| 2026-05-06 02:30 | 40.46282 | -74.40997 | 6226 ft | 312 kts | 71° |
| 2026-05-06 02:31 | 40.47019 | -74.38318 | 5975 ft | 313 kts | 71° |
| 2026-05-06 02:31 | 40.47754 | -74.35620 | 5727 ft | 314 kts | 72° |
| 2026-05-06 02:31 | 40.48486 | -74.32912 | 5476 ft | 314 kts | 72° |
| 2026-05-06 02:31 | 40.49215 | -74.30203 | 5230 ft | 315 kts | 72° |
| 2026-05-06 02:32 | 40.49943 | -74.27490 | 4978 ft | 314 kts | 72° |
| 2026-05-06 02:32 | 40.50668 | -74.24785 | 4747 ft | 313 kts | 72° |
| 2026-05-06 02:32 | 40.51387 | -74.22090 | 4494 ft | 312 kts | 72° |
| 2026-05-06 02:32 | 40.52105 | -74.19405 | 4244 ft | 311 kts | 72° |
| 2026-05-06 02:33 | 40.52821 | -74.16724 | 3993 ft | 310 kts | 72° |
| 2026-05-06 02:33 | 40.53291 | -74.14965 | 3829 ft | 309 kts | 73° |
| 2026-05-06 02:34 | 40.56360 | -74.05809 | 3836 ft | 313 kts | 45° |
| 2026-05-06 02:34 | 40.57926 | -74.04149 | 4059 ft | 276 kts | 30° |
| 2026-05-06 02:34 | 40.59452 | -74.02860 | 4196 ft | 248 kts | 27° |
| 2026-05-06 02:34 | 40.60870 | -74.01692 | 4071 ft | 233 kts | 27° |
| 2026-05-06 02:35 | 40.62202 | -74.00583 | 3948 ft | 220 kts | 27° |
| 2026-05-06 02:35 | 40.63487 | -73.99520 | 3695 ft | 216 kts | 27° |
| 2026-05-06 02:35 | 40.66033 | -73.97438 | 3195 ft | 221 kts | 27° |
| 2026-05-06 02:36 | 40.67338 | -73.96366 | 3060 ft | 220 kts | 28° |
| 2026-05-06 02:36 | 40.68628 | -73.95303 | 3028 ft | 217 kts | 27° |
| 2026-05-06 02:36 | 40.69913 | -73.94244 | 3018 ft | 219 kts | 28° |
| 2026-05-06 02:36 | 40.71217 | -73.93174 | 3021 ft | 223 kts | 27° |
| 2026-05-06 02:37 | 40.72569 | -73.92082 | 2622 ft | 232 kts | 28° |
| 2026-05-06 02:37 | 40.73964 | -73.90882 | 1843 ft | 248 kts | 31° |
| 2026-05-06 02:37 | 40.75470 | -73.89651 | 925 ft | 256 kts | 32° |
| 2026-05-06 02:37 | 40.76904 | -73.88414 | 178 ft | 228 kts | 32° |